Weather at Tucson International Airport / Morris Air National Guard Base

Public forecast

Using degrees Fahrenheit for public forecast. Weather courtesy of forecast.io.

Current aviation weather report (METAR) for Tucson International Airport / Morris Air National Guard Base

Retrieved 2021/12/04 00:53 UTC (22 minutes ago):

KTUS 040053Z 33005KT 10SM CLR 22/03 A3004 RMK AO2 SLP144 T02220028

Aviation forecast (TAF) for Tucson International Airport / Morris Air National Guard Base

Retrieved 2021-12-04 00:30 UTC (45 minutes ago):

TAF KTUS 032329Z 0400/0424 VRB03KT P6SM FEW250 FM040500 13004KT P6SM FEW250 FM042000 31007KT P6SM SCT250